Accueil
METAR-TAF:

METAR-TAF

Aéroports :

Base aérienne de l'OTAN de Geilenkirchen

Geilenkirchen, Allemagne

latitude: 50-57-39N, longitude: 006-2-33E, altitude: 90 m

Observation

Le bulletin a été fait il y a 1 heure et 1 minutes, à 14:50 UTC
Vent 2 kt de direction variable
Température 28°C
Humidité 27%
Pression 1014 hPa
Visibilité 10 km ou plus
pas de nuages en-dessous de 1500 mètres et pas de cumulonimbus.

METAR: ETNG 021450Z VRB02KT CAVOK 28/07 Q1014 NOSIG

Heure: 17:51 (15:51 UTC)

Prévision

Le bulletin a été fait il y a 1 heure et 51 minutes, à 14:00 UTC
Prévision valable du 02 à 15 UTC au 03 à 06 UTC
Vent 4 kt de direction variable
Visibilité 10 km ou plus
pas de nuages en-dessous de 1500 mètres et pas de cumulonimbus.
Evoluant progressivement
du 02 à 17 UTC au 02 à 20 UTC
Vent 6 kt de nord-ouest

TAF: ETNG 021400Z 0215/0306 VRB04KT CAVOK BECMG 0217/0220 32006KT

Observations et prévisions météorologiques de plus de 4000 aéroports (messages METAR et TAF).

Les stations disponibles sont représentées par des disques jaunes et rouges sur la carte.

Passer la souris dessus pour voir le nom de la station.

Cliquer dessus pour voir les observations et prévisions météorologiques.

Pour changer de carte: cliquez sur les boutons verts avec une croix noire pour zoomer, sur le bouton vert avec un tiret pour effectuer un zoom arrière, ou sur les flèches vertes pour les cartes adjacentes.


METAR-TAF: